sensor_id;sensor_type;location;lat;lon;timestamp;temperature;humidity
5846;DHT22;2949;50.778;7.094;2023-02-04T00:01:19;8.40;99.90
5846;DHT22;2949;50.778;7.094;2023-02-04T00:03:44;8.40;99.90
5846;DHT22;2949;50.778;7.094;2023-02-04T00:06:10;8.40;99.90
5846;DHT22;2949;50.778;7.094;2023-02-04T00:08:35;8.30;99.90
5846;DHT22;2949;50.778;7.094;2023-02-04T00:11:02;8.30;99.90
5846;DHT22;2949;50.778;7.094;2023-02-04T00:13:27;8.40;99.90
5846;DHT22;2949;50.778;7.094;2023-02-04T00:15:53;8.40;99.90
5846;DHT22;2949;50.778;7.094;2023-02-04T00:18:18;8.30;99.90
5846;DHT22;2949;50.778;7.094;2023-02-04T00:20:44;8.30;99.90
5846;DHT22;2949;50.778;7.094;2023-02-04T00:23:10;8.30;99.90
5846;DHT22;2949;50.778;7.094;2023-02-04T00:25:35;8.30;99.90
5846;DHT22;2949;50.778;7.094;2023-02-04T00:28:01;8.30;99.90
5846;DHT22;2949;50.778;7.094;2023-02-04T00:30:26;8.30;99.90
5846;DHT22;2949;50.778;7.094;2023-02-04T00:32:52;8.30;99.90
5846;DHT22;2949;50.778;7.094;2023-02-04T00:35:19;8.20;99.90
5846;DHT22;2949;50.778;7.094;2023-02-04T00:37:45;8.20;99.90
5846;DHT22;2949;50.778;7.094;2023-02-04T00:40:11;8.30;99.90
5846;DHT22;2949;50.778;7.094;2023-02-04T00:42:37;8.20;99.90
5846;DHT22;2949;50.778;7.094;2023-02-04T00:45:02;8.20;99.90
5846;DHT22;2949;50.778;7.094;2023-02-04T00:47:28;8.10;99.90
5846;DHT22;2949;50.778;7.094;2023-02-04T00:49:53;8.10;99.90
5846;DHT22;2949;50.778;7.094;2023-02-04T00:52:19;8.10;99.90
5846;DHT22;2949;50.778;7.094;2023-02-04T00:54:44;8.10;99.90
5846;DHT22;2949;50.778;7.094;2023-02-04T00:57:10;8.10;99.90
5846;DHT22;2949;50.778;7.094;2023-02-04T00:59:35;8.10;99.90
5846;DHT22;2949;50.778;7.094;2023-02-04T01:02:01;8.10;99.90
5846;DHT22;2949;50.778;7.094;2023-02-04T01:04:26;8.10;99.90
5846;DHT22;2949;50.778;7.094;2023-02-04T01:06:53;8.10;99.90
5846;DHT22;2949;50.778;7.094;2023-02-04T01:09:19;8.10;99.90
5846;DHT22;2949;50.778;7.094;2023-02-04T01:11:44;8.00;99.90
5846;DHT22;2949;50.778;7.094;2023-02-04T01:14:11;8.00;99.90
5846;DHT22;2949;50.778;7.094;2023-02-04T01:16:36;8.00;99.90
5846;DHT22;2949;50.778;7.094;2023-02-04T01:19:02;8.00;99.90
5846;DHT22;2949;50.778;7.094;2023-02-04T01:21:27;8.00;99.90
5846;DHT22;2949;50.778;7.094;2023-02-04T01:23:53;8.00;99.90
5846;DHT22;2949;50.778;7.094;2023-02-04T01:26:19;8.00;99.90
5846;DHT22;2949;50.778;7.094;2023-02-04T01:28:45;7.90;99.90
5846;DHT22;2949;50.778;7.094;2023-02-04T01:31:11;7.90;99.90
5846;DHT22;2949;50.778;7.094;2023-02-04T01:33:36;7.90;99.90
5846;DHT22;2949;50.778;7.094;2023-02-04T01:36:02;7.90;99.90
5846;DHT22;2949;50.778;7.094;2023-02-04T01:38:28;7.90;99.90
5846;DHT22;2949;50.778;7.094;2023-02-04T01:40:53;7.90;99.90
5846;DHT22;2949;50.778;7.094;2023-02-04T01:43:19;7.90;99.90
5846;DHT22;2949;50.778;7.094;2023-02-04T01:45:47;7.90;99.90
5846;DHT22;2949;50.778;7.094;2023-02-04T01:48:13;7.90;99.90
5846;DHT22;2949;50.778;7.094;2023-02-04T01:50:46;7.80;99.90
5846;DHT22;2949;50.778;7.094;2023-02-04T01:53:12;7.80;99.90
5846;DHT22;2949;50.778;7.094;2023-02-04T01:55:37;7.80;99.90
5846;DHT22;2949;50.778;7.094;2023-02-04T01:58:03;7.80;99.90
5846;DHT22;2949;50.778;7.094;2023-02-04T02:00:31;7.80;99.90
5846;DHT22;2949;50.778;7.094;2023-02-04T02:02:58;7.80;99.90
5846;DHT22;2949;50.778;7.094;2023-02-04T02:05:48;7.70;99.90
5846;DHT22;2949;50.778;7.094;2023-02-04T02:08:14;7.70;99.90
5846;DHT22;2949;50.778;7.094;2023-02-04T02:10:43;7.70;99.90
5846;DHT22;2949;50.778;7.094;2023-02-04T02:13:11;7.70;99.90
5846;DHT22;2949;50.778;7.094;2023-02-04T02:15:38;7.70;99.90
5846;DHT22;2949;50.778;7.094;2023-02-04T02:18:03;7.70;99.90
5846;DHT22;2949;50.778;7.094;2023-02-04T02:20:29;7.70;99.90
5846;DHT22;2949;50.778;7.094;2023-02-04T02:23:10;7.70;99.90
5846;DHT22;2949;50.778;7.094;2023-02-04T02:25:38;7.60;99.90
5846;DHT22;2949;50.778;7.094;2023-02-04T02:28:09;7.60;99.90
5846;DHT22;2949;50.778;7.094;2023-02-04T02:30:35;7.60;99.90
5846;DHT22;2949;50.778;7.094;2023-02-04T02:33:01;7.60;99.90
5846;DHT22;2949;50.778;7.094;2023-02-04T02:35:27;7.60;99.90
5846;DHT22;2949;50.778;7.094;2023-02-04T02:37:52;7.60;99.90
5846;DHT22;2949;50.778;7.094;2023-02-04T02:40:18;7.60;99.90
5846;DHT22;2949;50.778;7.094;2023-02-04T02:42:48;7.60;99.90
5846;DHT22;2949;50.778;7.094;2023-02-04T02:45:22;7.60;99.90
5846;DHT22;2949;50.778;7.094;2023-02-04T02:47:49;7.50;99.90
5846;DHT22;2949;50.778;7.094;2023-02-04T02:52:41;7.50;99.90
5846;DHT22;2949;50.778;7.094;2023-02-04T02:55:15;7.50;99.90
5846;DHT22;2949;50.778;7.094;2023-02-04T02:57:41;7.50;99.90
5846;DHT22;2949;50.778;7.094;2023-02-04T03:03:08;7.40;99.90
5846;DHT22;2949;50.778;7.094;2023-02-04T03:05:40;7.40;99.90
5846;DHT22;2949;50.778;7.094;2023-02-04T03:08:07;7.40;99.90
5846;DHT22;2949;50.778;7.094;2023-02-04T03:10:34;7.40;99.90
5846;DHT22;2949;50.778;7.094;2023-02-04T03:13:00;7.40;99.90
5846;DHT22;2949;50.778;7.094;2023-02-04T03:15:26;7.40;99.90
5846;DHT22;2949;50.778;7.094;2023-02-04T03:17:52;7.40;99.90
5846;DHT22;2949;50.778;7.094;2023-02-04T03:20:22;7.40;99.90
5846;DHT22;2949;50.778;7.094;2023-02-04T03:22:48;7.30;99.90
5846;DHT22;2949;50.778;7.094;2023-02-04T03:25:14;7.30;99.90
5846;DHT22;2949;50.778;7.094;2023-02-04T03:27:39;7.30;99.90
5846;DHT22;2949;50.778;7.094;2023-02-04T03:30:05;7.30;99.90
5846;DHT22;2949;50.778;7.094;2023-02-04T03:32:31;7.20;99.90
5846;DHT22;2949;50.778;7.094;2023-02-04T03:34:57;7.20;99.90
5846;DHT22;2949;50.778;7.094;2023-02-04T03:37:22;7.20;99.90
5846;DHT22;2949;50.778;7.094;2023-02-04T03:39:48;7.20;99.90
5846;DHT22;2949;50.778;7.094;2023-02-04T03:42:13;7.20;99.90
5846;DHT22;2949;50.778;7.094;2023-02-04T03:44:39;7.10;99.90
5846;DHT22;2949;50.778;7.094;2023-02-04T03:47:04;7.10;99.90
5846;DHT22;2949;50.778;7.094;2023-02-04T03:49:30;7.20;99.90
5846;DHT22;2949;50.778;7.094;2023-02-04T03:51:56;7.10;99.90
5846;DHT22;2949;50.778;7.094;2023-02-04T03:54:22;7.10;99.90
5846;DHT22;2949;50.778;7.094;2023-02-04T03:56:47;7.10;99.90
5846;DHT22;2949;50.778;7.094;2023-02-04T03:59:13;7.10;99.90
5846;DHT22;2949;50.778;7.094;2023-02-04T04:01:38;7.10;99.90
5846;DHT22;2949;50.778;7.094;2023-02-04T04:04:04;7.10;99.90
5846;DHT22;2949;50.778;7.094;2023-02-04T04:06:29;7.10;99.90
5846;DHT22;2949;50.778;7.094;2023-02-04T04:08:56;7.10;99.90
5846;DHT22;2949;50.778;7.094;2023-02-04T04:11:21;7.10;99.90
5846;DHT22;2949;50.778;7.094;2023-02-04T04:13:47;7.10;99.90
5846;DHT22;2949;50.778;7.094;2023-02-04T04:16:12;7.00;99.90
5846;DHT22;2949;50.778;7.094;2023-02-04T04:18:38;7.00;99.90
5846;DHT22;2949;50.778;7.094;2023-02-04T04:21:03;7.00;99.90
5846;DHT22;2949;50.778;7.094;2023-02-04T04:23:29;7.00;99.90
5846;DHT22;2949;50.778;7.094;2023-02-04T04:25:55;7.00;99.90
5846;DHT22;2949;50.778;7.094;2023-02-04T04:28:20;6.90;99.90
5846;DHT22;2949;50.778;7.094;2023-02-04T04:30:46;7.00;99.90
5846;DHT22;2949;50.778;7.094;2023-02-04T04:33:11;6.90;99.90
5846;DHT22;2949;50.778;7.094;2023-02-04T04:35:37;6.90;99.90
5846;DHT22;2949;50.778;7.094;2023-02-04T04:38:02;6.90;99.90
5846;DHT22;2949;50.778;7.094;2023-02-04T04:40:28;6.90;99.90
5846;DHT22;2949;50.778;7.094;2023-02-04T04:42:54;6.90;99.90
5846;DHT22;2949;50.778;7.094;2023-02-04T04:45:20;6.90;99.90
5846;DHT22;2949;50.778;7.094;2023-02-04T04:47:46;6.90;99.90
5846;DHT22;2949;50.778;7.094;2023-02-04T04:50:11;6.90;99.90
5846;DHT22;2949;50.778;7.094;2023-02-04T04:52:37;6.90;99.90
5846;DHT22;2949;50.778;7.094;2023-02-04T04:55:03;6.80;99.90
5846;DHT22;2949;50.778;7.094;2023-02-04T04:57:30;6.80;99.90
5846;DHT22;2949;50.778;7.094;2023-02-04T04:59:56;6.80;99.90
5846;DHT22;2949;50.778;7.094;2023-02-04T05:02:21;6.80;99.90
5846;DHT22;2949;50.778;7.094;2023-02-04T05:04:47;6.80;99.90
5846;DHT22;2949;50.778;7.094;2023-02-04T05:07:12;6.80;99.90
5846;DHT22;2949;50.778;7.094;2023-02-04T05:09:38;6.80;99.90
5846;DHT22;2949;50.778;7.094;2023-02-04T05:12:04;6.80;99.90
5846;DHT22;2949;50.778;7.094;2023-02-04T05:14:29;6.80;99.90
5846;DHT22;2949;50.778;7.094;2023-02-04T05:16:55;6.70;99.90
5846;DHT22;2949;50.778;7.094;2023-02-04T05:19:20;6.70;99.90
5846;DHT22;2949;50.778;7.094;2023-02-04T05:21:46;6.70;99.90
5846;DHT22;2949;50.778;7.094;2023-02-04T05:24:12;6.70;99.90
5846;DHT22;2949;50.778;7.094;2023-02-04T05:26:37;6.70;99.90
5846;DHT22;2949;50.778;7.094;2023-02-04T05:29:03;6.70;99.90
5846;DHT22;2949;50.778;7.094;2023-02-04T05:31:28;6.70;99.90
5846;DHT22;2949;50.778;7.094;2023-02-04T05:33:54;6.70;99.90
5846;DHT22;2949;50.778;7.094;2023-02-04T05:36:20;6.60;99.90
5846;DHT22;2949;50.778;7.094;2023-02-04T05:38:47;6.60;99.90
5846;DHT22;2949;50.778;7.094;2023-02-04T05:41:12;6.60;99.90
5846;DHT22;2949;50.778;7.094;2023-02-04T05:43:38;6.60;99.90
5846;DHT22;2949;50.778;7.094;2023-02-04T05:46:04;6.60;99.90
5846;DHT22;2949;50.778;7.094;2023-02-04T05:48:29;6.60;99.90
5846;DHT22;2949;50.778;7.094;2023-02-04T05:50:55;6.60;99.90
5846;DHT22;2949;50.778;7.094;2023-02-04T05:53:21;6.60;99.90
5846;DHT22;2949;50.778;7.094;2023-02-04T05:55:46;6.60;99.90
5846;DHT22;2949;50.778;7.094;2023-02-04T05:58:12;6.60;99.90
5846;DHT22;2949;50.778;7.094;2023-02-04T06:00:38;6.60;99.90
5846;DHT22;2949;50.778;7.094;2023-02-04T06:03:03;6.60;99.90
5846;DHT22;2949;50.778;7.094;2023-02-04T06:05:29;6.60;99.90
5846;DHT22;2949;50.778;7.094;2023-02-04T06:07:54;6.60;99.90
5846;DHT22;2949;50.778;7.094;2023-02-04T06:10:20;6.60;99.90
5846;DHT22;2949;50.778;7.094;2023-02-04T06:12:46;6.60;99.90
5846;DHT22;2949;50.778;7.094;2023-02-04T06:15:12;6.60;99.90
5846;DHT22;2949;50.778;7.094;2023-02-04T06:17:38;6.60;99.90
5846;DHT22;2949;50.778;7.094;2023-02-04T06:20:04;6.60;99.90
5846;DHT22;2949;50.778;7.094;2023-02-04T06:22:30;6.60;99.90
5846;DHT22;2949;50.778;7.094;2023-02-04T06:24:56;6.60;99.90
5846;DHT22;2949;50.778;7.094;2023-02-04T06:27:21;6.60;99.90
5846;DHT22;2949;50.778;7.094;2023-02-04T06:29:51;6.60;99.90
5846;DHT22;2949;50.778;7.094;2023-02-04T06:32:17;6.60;99.90
5846;DHT22;2949;50.778;7.094;2023-02-04T06:34:43;6.50;99.90
5846;DHT22;2949;50.778;7.094;2023-02-04T06:37:08;6.50;99.90
5846;DHT22;2949;50.778;7.094;2023-02-04T06:39:34;6.50;99.90
5846;DHT22;2949;50.778;7.094;2023-02-04T06:41:59;6.50;99.90
5846;DHT22;2949;50.778;7.094;2023-02-04T06:44:25;6.50;99.90
5846;DHT22;2949;50.778;7.094;2023-02-04T06:46:50;6.40;99.90
5846;DHT22;2949;50.778;7.094;2023-02-04T06:49:16;6.40;99.90
5846;DHT22;2949;50.778;7.094;2023-02-04T06:51:41;6.40;99.90
5846;DHT22;2949;50.778;7.094;2023-02-04T06:54:07;6.40;99.90
5846;DHT22;2949;50.778;7.094;2023-02-04T06:56:32;6.40;99.90
5846;DHT22;2949;50.778;7.094;2023-02-04T06:58:58;6.40;99.90
5846;DHT22;2949;50.778;7.094;2023-02-04T07:01:23;6.40;99.90
5846;DHT22;2949;50.778;7.094;2023-02-04T07:03:49;6.40;99.90
5846;DHT22;2949;50.778;7.094;2023-02-04T07:06:14;6.30;99.90
5846;DHT22;2949;50.778;7.094;2023-02-04T07:08:40;6.30;99.90
5846;DHT22;2949;50.778;7.094;2023-02-04T07:11:05;6.30;99.90
5846;DHT22;2949;50.778;7.094;2023-02-04T07:13:31;6.30;99.90
5846;DHT22;2949;50.778;7.094;2023-02-04T07:15:56;6.30;99.90
5846;DHT22;2949;50.778;7.094;2023-02-04T07:18:22;6.30;99.90
5846;DHT22;2949;50.778;7.094;2023-02-04T07:20:48;6.30;99.90
5846;DHT22;2949;50.778;7.094;2023-02-04T07:23:13;6.30;99.90
5846;DHT22;2949;50.778;7.094;2023-02-04T07:25:39;6.30;99.90
5846;DHT22;2949;50.778;7.094;2023-02-04T07:28:04;6.30;99.90
5846;DHT22;2949;50.778;7.094;2023-02-04T07:30:31;6.30;99.90
5846;DHT22;2949;50.778;7.094;2023-02-04T07:32:56;6.40;99.90
5846;DHT22;2949;50.778;7.094;2023-02-04T07:35:22;6.40;99.90
5846;DHT22;2949;50.778;7.094;2023-02-04T07:37:48;6.40;99.90
5846;DHT22;2949;50.778;7.094;2023-02-04T07:40:14;6.50;99.90
5846;DHT22;2949;50.778;7.094;2023-02-04T07:42:40;6.50;99.90
5846;DHT22;2949;50.778;7.094;2023-02-04T07:45:06;6.60;99.90
5846;DHT22;2949;50.778;7.094;2023-02-04T07:47:31;6.60;99.90
5846;DHT22;2949;50.778;7.094;2023-02-04T07:49:57;6.70;99.90
5846;DHT22;2949;50.778;7.094;2023-02-04T07:52:23;6.80;99.90
5846;DHT22;2949;50.778;7.094;2023-02-04T07:54:49;6.80;99.90
5846;DHT22;2949;50.778;7.094;2023-02-04T07:57:15;6.90;99.90
5846;DHT22;2949;50.778;7.094;2023-02-04T07:59:40;7.00;99.90
5846;DHT22;2949;50.778;7.094;2023-02-04T08:02:06;7.10;99.90
5846;DHT22;2949;50.778;7.094;2023-02-04T08:04:32;7.20;99.90
5846;DHT22;2949;50.778;7.094;2023-02-04T08:06:57;7.30;99.90
5846;DHT22;2949;50.778;7.094;2023-02-04T08:09:23;7.40;99.90
5846;DHT22;2949;50.778;7.094;2023-02-04T08:11:51;7.50;99.90
5846;DHT22;2949;50.778;7.094;2023-02-04T08:14:17;7.50;99.90
5846;DHT22;2949;50.778;7.094;2023-02-04T08:16:42;7.50;99.90
5846;DHT22;2949;50.778;7.094;2023-02-04T08:19:08;7.50;99.90
5846;DHT22;2949;50.778;7.094;2023-02-04T08:21:33;7.50;99.90
5846;DHT22;2949;50.778;7.094;2023-02-04T08:23:59;7.50;99.90
5846;DHT22;2949;50.778;7.094;2023-02-04T08:26:24;7.50;99.90
5846;DHT22;2949;50.778;7.094;2023-02-04T08:28:50;7.50;99.90
5846;DHT22;2949;50.778;7.094;2023-02-04T08:31:15;7.40;99.90
5846;DHT22;2949;50.778;7.094;2023-02-04T08:33:41;7.40;99.90
5846;DHT22;2949;50.778;7.094;2023-02-04T08:36:07;7.40;99.90
5846;DHT22;2949;50.778;7.094;2023-02-04T08:38:33;7.50;99.90
5846;DHT22;2949;50.778;7.094;2023-02-04T08:40:59;7.50;99.90
5846;DHT22;2949;50.778;7.094;2023-02-04T08:43:25;7.70;99.90
5846;DHT22;2949;50.778;7.094;2023-02-04T08:45:51;7.90;99.90
5846;DHT22;2949;50.778;7.094;2023-02-04T08:48:16;8.10;99.90
5846;DHT22;2949;50.778;7.094;2023-02-04T08:50:42;8.30;99.90
5846;DHT22;2949;50.778;7.094;2023-02-04T08:53:07;8.50;99.90
5846;DHT22;2949;50.778;7.094;2023-02-04T08:55:33;8.80;99.90
5846;DHT22;2949;50.778;7.094;2023-02-04T08:57:59;9.00;99.90
5846;DHT22;2949;50.778;7.094;2023-02-04T09:00:26;9.10;99.90
5846;DHT22;2949;50.778;7.094;2023-02-04T09:02:51;9.10;99.90
5846;DHT22;2949;50.778;7.094;2023-02-04T09:05:17;9.10;99.90
5846;DHT22;2949;50.778;7.094;2023-02-04T09:07:42;9.20;99.90
5846;DHT22;2949;50.778;7.094;2023-02-04T09:10:08;9.20;99.90
5846;DHT22;2949;50.778;7.094;2023-02-04T09:12:34;9.30;99.90
5846;DHT22;2949;50.778;7.094;2023-02-04T09:14:59;9.30;99.90
5846;DHT22;2949;50.778;7.094;2023-02-04T09:17:25;9.30;99.90
5846;DHT22;2949;50.778;7.094;2023-02-04T09:19:50;9.30;99.90
5846;DHT22;2949;50.778;7.094;2023-02-04T09:22:16;9.30;99.90
5846;DHT22;2949;50.778;7.094;2023-02-04T09:24:41;9.20;99.90
5846;DHT22;2949;50.778;7.094;2023-02-04T09:27:07;9.20;99.90
5846;DHT22;2949;50.778;7.094;2023-02-04T09:29:33;9.20;99.90
5846;DHT22;2949;50.778;7.094;2023-02-04T09:31:58;9.10;99.90
5846;DHT22;2949;50.778;7.094;2023-02-04T09:34:24;9.20;99.90
5846;DHT22;2949;50.778;7.094;2023-02-04T09:36:49;9.30;99.90
5846;DHT22;2949;50.778;7.094;2023-02-04T09:39:15;9.30;99.90
5846;DHT22;2949;50.778;7.094;2023-02-04T09:41:41;9.30;99.90
5846;DHT22;2949;50.778;7.094;2023-02-04T09:44:14;9.40;99.90
5846;DHT22;2949;50.778;7.094;2023-02-04T09:46:44;9.40;99.90
5846;DHT22;2949;50.778;7.094;2023-02-04T09:49:11;9.50;99.90
5846;DHT22;2949;50.778;7.094;2023-02-04T09:51:37;9.70;99.90
5846;DHT22;2949;50.778;7.094;2023-02-04T09:54:06;9.80;99.90
5846;DHT22;2949;50.778;7.094;2023-02-04T09:56:33;9.80;99.90
5846;DHT22;2949;50.778;7.094;2023-02-04T09:58:58;9.90;99.90
5846;DHT22;2949;50.778;7.094;2023-02-04T10:01:25;9.90;99.90
5846;DHT22;2949;50.778;7.094;2023-02-04T10:04:00;9.90;99.90
5846;DHT22;2949;50.778;7.094;2023-02-04T10:06:26;10.10;99.90
5846;DHT22;2949;50.778;7.094;2023-02-04T10:08:51;10.30;99.90
5846;DHT22;2949;50.778;7.094;2023-02-04T10:11:20;10.50;99.90
5846;DHT22;2949;50.778;7.094;2023-02-04T10:13:48;10.80;99.90
5846;DHT22;2949;50.778;7.094;2023-02-04T10:16:48;10.90;99.90
5846;DHT22;2949;50.778;7.094;2023-02-04T10:19:15;11.10;99.90
5846;DHT22;2949;50.778;7.094;2023-02-04T10:21:43;11.10;99.90
5846;DHT22;2949;50.778;7.094;2023-02-04T10:24:21;11.10;99.90
5846;DHT22;2949;50.778;7.094;2023-02-04T10:26:50;11.00;99.90
5846;DHT22;2949;50.778;7.094;2023-02-04T10:29:21;11.00;99.90
5846;DHT22;2949;50.778;7.094;2023-02-04T10:31:50;11.10;99.90
5846;DHT22;2949;50.778;7.094;2023-02-04T10:34:31;11.10;99.90
5846;DHT22;2949;50.778;7.094;2023-02-04T10:36:57;11.10;99.90
5846;DHT22;2949;50.778;7.094;2023-02-04T10:39:27;11.00;99.90
5846;DHT22;2949;50.778;7.094;2023-02-04T10:41:55;11.10;99.90
5846;DHT22;2949;50.778;7.094;2023-02-04T10:44:29;11.10;99.90
5846;DHT22;2949;50.778;7.094;2023-02-04T10:47:03;11.10;99.90
5846;DHT22;2949;50.778;7.094;2023-02-04T10:49:29;11.10;99.90
5846;DHT22;2949;50.778;7.094;2023-02-04T10:51:55;11.20;99.90
5846;DHT22;2949;50.778;7.094;2023-02-04T10:54:24;11.30;99.90
5846;DHT22;2949;50.778;7.094;2023-02-04T10:59:30;11.30;99.90
5846;DHT22;2949;50.778;7.094;2023-02-04T11:01:57;11.40;99.90
5846;DHT22;2949;50.778;7.094;2023-02-04T11:04:25;11.50;99.90
5846;DHT22;2949;50.778;7.094;2023-02-04T11:06:51;11.60;99.90
5846;DHT22;2949;50.778;7.094;2023-02-04T11:09:18;11.60;99.90
5846;DHT22;2949;50.778;7.094;2023-02-04T11:11:48;11.80;99.90
5846;DHT22;2949;50.778;7.094;2023-02-04T11:14:23;11.90;99.90
5846;DHT22;2949;50.778;7.094;2023-02-04T11:16:48;11.90;99.90
5846;DHT22;2949;50.778;7.094;2023-02-04T11:19:14;11.90;99.90
5846;DHT22;2949;50.778;7.094;2023-02-04T11:21:45;11.90;99.90
5846;DHT22;2949;50.778;7.094;2023-02-04T11:39:23;11.50;99.90
5846;DHT22;2949;50.778;7.094;2023-02-04T11:41:51;11.50;99.90
5846;DHT22;2949;50.778;7.094;2023-02-04T11:44:17;11.50;99.90
5846;DHT22;2949;50.778;7.094;2023-02-04T11:46:42;11.60;99.90
5846;DHT22;2949;50.778;7.094;2023-02-04T11:49:13;11.50;99.90
5846;DHT22;2949;50.778;7.094;2023-02-04T11:51:41;11.30;99.90
5846;DHT22;2949;50.778;7.094;2023-02-04T11:54:09;11.10;99.90
5846;DHT22;2949;50.778;7.094;2023-02-04T11:56:35;10.80;99.90
5846;DHT22;2949;50.778;7.094;2023-02-04T11:59:00;10.90;99.90
5846;DHT22;2949;50.778;7.094;2023-02-04T12:01:33;11.10;99.90
5846;DHT22;2949;50.778;7.094;2023-02-04T12:04:00;11.10;99.90
5846;DHT22;2949;50.778;7.094;2023-02-04T12:06:29;11.30;99.90
5846;DHT22;2949;50.778;7.094;2023-02-04T12:11:53;11.40;99.90
5846;DHT22;2949;50.778;7.094;2023-02-04T12:14:19;11.30;99.90
5846;DHT22;2949;50.778;7.094;2023-02-04T12:16:47;11.40;99.90
5846;DHT22;2949;50.778;7.094;2023-02-04T12:19:13;11.30;99.90
5846;DHT22;2949;50.778;7.094;2023-02-04T12:21:39;11.30;99.90
5846;DHT22;2949;50.778;7.094;2023-02-04T12:24:05;11.30;99.90
5846;DHT22;2949;50.778;7.094;2023-02-04T12:26:30;11.20;99.90
5846;DHT22;2949;50.778;7.094;2023-02-04T12:28:56;11.20;99.90
5846;DHT22;2949;50.778;7.094;2023-02-04T12:31:24;11.20;99.90
5846;DHT22;2949;50.778;7.094;2023-02-04T12:33:49;11.20;99.90
5846;DHT22;2949;50.778;7.094;2023-02-04T12:36:15;11.30;99.90
5846;DHT22;2949;50.778;7.094;2023-02-04T12:38:41;11.20;99.90
5846;DHT22;2949;50.778;7.094;2023-02-04T12:41:07;11.10;99.90
5846;DHT22;2949;50.778;7.094;2023-02-04T12:43:33;11.10;99.90
5846;DHT22;2949;50.778;7.094;2023-02-04T12:45:58;11.10;99.90
5846;DHT22;2949;50.778;7.094;2023-02-04T12:48:24;11.20;99.90
5846;DHT22;2949;50.778;7.094;2023-02-04T12:50:50;11.20;99.90
5846;DHT22;2949;50.778;7.094;2023-02-04T12:53:15;11.10;99.90
5846;DHT22;2949;50.778;7.094;2023-02-04T12:55:41;11.20;99.90
5846;DHT22;2949;50.778;7.094;2023-02-04T12:58:06;11.30;99.90
5846;DHT22;2949;50.778;7.094;2023-02-04T13:00:32;11.30;99.90
5846;DHT22;2949;50.778;7.094;2023-02-04T13:02:57;11.40;99.90
5846;DHT22;2949;50.778;7.094;2023-02-04T13:05:23;11.40;99.90
5846;DHT22;2949;50.778;7.094;2023-02-04T13:07:49;11.40;99.90
5846;DHT22;2949;50.778;7.094;2023-02-04T13:10:15;11.40;99.90
5846;DHT22;2949;50.778;7.094;2023-02-04T13:12:41;11.40;99.90
5846;DHT22;2949;50.778;7.094;2023-02-04T13:15:07;11.30;99.90
5846;DHT22;2949;50.778;7.094;2023-02-04T13:17:32;11.30;99.90
5846;DHT22;2949;50.778;7.094;2023-02-04T13:19:58;11.30;99.90
5846;DHT22;2949;50.778;7.094;2023-02-04T13:22:25;11.40;99.90
5846;DHT22;2949;50.778;7.094;2023-02-04T13:24:50;11.50;99.90
5846;DHT22;2949;50.778;7.094;2023-02-04T13:27:16;11.50;99.90
5846;DHT22;2949;50.778;7.094;2023-02-04T13:29:42;11.50;99.90
5846;DHT22;2949;50.778;7.094;2023-02-04T13:32:07;11.50;99.90
5846;DHT22;2949;50.778;7.094;2023-02-04T13:34:33;11.50;99.90
5846;DHT22;2949;50.778;7.094;2023-02-04T13:36:59;11.40;99.90
5846;DHT22;2949;50.778;7.094;2023-02-04T13:39:24;11.40;99.90
5846;DHT22;2949;50.778;7.094;2023-02-04T13:41:50;11.30;99.90
5846;DHT22;2949;50.778;7.094;2023-02-04T13:44:15;11.30;99.90
5846;DHT22;2949;50.778;7.094;2023-02-04T13:46:41;11.30;99.90
5846;DHT22;2949;50.778;7.094;2023-02-04T13:49:06;11.30;99.90
5846;DHT22;2949;50.778;7.094;2023-02-04T13:51:32;11.20;99.90
5846;DHT22;2949;50.778;7.094;2023-02-04T13:53:57;11.10;99.90
5846;DHT22;2949;50.778;7.094;2023-02-04T13:56:25;11.00;99.90
5846;DHT22;2949;50.778;7.094;2023-02-04T13:58:50;11.00;99.90
5846;DHT22;2949;50.778;7.094;2023-02-04T14:01:16;10.90;99.90
5846;DHT22;2949;50.778;7.094;2023-02-04T14:03:41;10.90;99.90
5846;DHT22;2949;50.778;7.094;2023-02-04T14:06:08;10.70;99.90
5846;DHT22;2949;50.778;7.094;2023-02-04T14:08:33;10.60;99.90
5846;DHT22;2949;50.778;7.094;2023-02-04T14:10:59;10.50;99.90
5846;DHT22;2949;50.778;7.094;2023-02-04T14:13:25;10.40;99.90
5846;DHT22;2949;50.778;7.094;2023-02-04T14:15:52;10.30;99.90
5846;DHT22;2949;50.778;7.094;2023-02-04T14:18:17;10.30;99.90
5846;DHT22;2949;50.778;7.094;2023-02-04T14:20:43;10.30;99.90
5846;DHT22;2949;50.778;7.094;2023-02-04T14:23:09;10.30;99.90
5846;DHT22;2949;50.778;7.094;2023-02-04T14:25:36;10.20;99.90
5846;DHT22;2949;50.778;7.094;2023-02-04T14:28:02;10.30;99.90
5846;DHT22;2949;50.778;7.094;2023-02-04T14:30:28;10.30;99.90
5846;DHT22;2949;50.778;7.094;2023-02-04T14:32:55;10.20;99.90
5846;DHT22;2949;50.778;7.094;2023-02-04T14:35:21;10.20;99.90
5846;DHT22;2949;50.778;7.094;2023-02-04T14:37:47;10.10;99.90
5846;DHT22;2949;50.778;7.094;2023-02-04T14:40:14;10.00;99.90
5846;DHT22;2949;50.778;7.094;2023-02-04T14:42:40;10.00;99.90
5846;DHT22;2949;50.778;7.094;2023-02-04T14:45:07;9.80;99.90
5846;DHT22;2949;50.778;7.094;2023-02-04T14:47:34;9.70;99.90
5846;DHT22;2949;50.778;7.094;2023-02-04T14:50:00;9.50;99.90
5846;DHT22;2949;50.778;7.094;2023-02-04T14:52:25;9.40;99.90
5846;DHT22;2949;50.778;7.094;2023-02-04T14:54:51;9.30;99.90
5846;DHT22;2949;50.778;7.094;2023-02-04T14:57:16;9.10;99.90
5846;DHT22;2949;50.778;7.094;2023-02-04T14:59:42;9.10;99.90
5846;DHT22;2949;50.778;7.094;2023-02-04T15:02:08;9.00;99.90
5846;DHT22;2949;50.778;7.094;2023-02-04T15:04:34;9.00;99.90
5846;DHT22;2949;50.778;7.094;2023-02-04T15:07:00;9.00;99.90
5846;DHT22;2949;50.778;7.094;2023-02-04T15:09:26;9.00;99.90
5846;DHT22;2949;50.778;7.094;2023-02-04T15:11:52;8.90;99.90
5846;DHT22;2949;50.778;7.094;2023-02-04T15:14:17;8.90;99.90
5846;DHT22;2949;50.778;7.094;2023-02-04T15:16:44;8.90;99.90
5846;DHT22;2949;50.778;7.094;2023-02-04T15:19:13;8.80;99.90
5846;DHT22;2949;50.778;7.094;2023-02-04T15:21:39;8.80;99.90
5846;DHT22;2949;50.778;7.094;2023-02-04T15:24:04;8.70;99.90
5846;DHT22;2949;50.778;7.094;2023-02-04T15:26:30;8.60;99.90
5846;DHT22;2949;50.778;7.094;2023-02-04T15:28:55;8.50;99.90
5846;DHT22;2949;50.778;7.094;2023-02-04T15:31:22;8.40;99.90
5846;DHT22;2949;50.778;7.094;2023-02-04T15:33:48;8.30;99.90
5846;DHT22;2949;50.778;7.094;2023-02-04T15:36:13;8.20;99.90
5846;DHT22;2949;50.778;7.094;2023-02-04T15:38:39;8.10;99.90
5846;DHT22;2949;50.778;7.094;2023-02-04T15:41:04;7.90;99.90
5846;DHT22;2949;50.778;7.094;2023-02-04T15:43:30;7.80;99.90
5846;DHT22;2949;50.778;7.094;2023-02-04T15:45:55;7.70;99.90
5846;DHT22;2949;50.778;7.094;2023-02-04T15:48:21;7.60;99.90
5846;DHT22;2949;50.778;7.094;2023-02-04T15:50:49;7.60;99.90
5846;DHT22;2949;50.778;7.094;2023-02-04T15:53:15;7.60;99.90
5846;DHT22;2949;50.778;7.094;2023-02-04T15:55:41;7.60;99.90
5846;DHT22;2949;50.778;7.094;2023-02-04T15:58:07;7.50;99.90
5846;DHT22;2949;50.778;7.094;2023-02-04T16:00:32;7.50;99.90
5846;DHT22;2949;50.778;7.094;2023-02-04T16:02:58;7.50;99.90
5846;DHT22;2949;50.778;7.094;2023-02-04T16:05:23;7.60;99.90
5846;DHT22;2949;50.778;7.094;2023-02-04T16:07:49;7.60;99.90
5846;DHT22;2949;50.778;7.094;2023-02-04T16:10:18;7.60;99.90
5846;DHT22;2949;50.778;7.094;2023-02-04T16:12:44;7.60;99.90
5846;DHT22;2949;50.778;7.094;2023-02-04T16:15:10;7.60;99.90
5846;DHT22;2949;50.778;7.094;2023-02-04T16:17:36;7.60;99.90
5846;DHT22;2949;50.778;7.094;2023-02-04T16:20:01;7.60;99.90
5846;DHT22;2949;50.778;7.094;2023-02-04T16:22:28;7.60;99.90
5846;DHT22;2949;50.778;7.094;2023-02-04T16:24:55;7.60;99.90
5846;DHT22;2949;50.778;7.094;2023-02-04T16:27:21;7.50;99.90
5846;DHT22;2949;50.778;7.094;2023-02-04T16:29:46;7.50;99.90
5846;DHT22;2949;50.778;7.094;2023-02-04T16:32:12;7.50;99.90
5846;DHT22;2949;50.778;7.094;2023-02-04T16:34:37;7.50;99.90